createdAt,value
2022-09-02T00:01:56.637Z,100744.53
2022-09-02T00:04:28.335Z,100762.78
2022-09-02T00:06:57.077Z,100733.97
2022-09-02T00:09:27.218Z,100763.00
2022-09-02T00:11:58.057Z,100764.50
2022-09-02T00:14:29.593Z,100769.63
2022-09-02T00:17:00.855Z,100766.94
2022-09-02T00:19:32.476Z,100749.63
2022-09-02T00:22:02.679Z,100770.69
2022-09-02T00:24:32.225Z,100755.84
2022-09-02T00:27:01.261Z,100773.38
2022-09-02T00:29:30.944Z,100776.66
2022-09-02T00:32:00.244Z,100767.91
2022-09-02T00:34:29.106Z,100754.28
2022-09-02T00:36:59.336Z,100780.78
2022-09-02T00:39:28.210Z,100779.09
2022-09-02T00:41:57.056Z,100765.69
2022-09-02T00:44:25.787Z,100753.53
2022-09-02T00:46:54.675Z,100772.53
2022-09-02T00:49:27.049Z,100791.97
2022-09-02T00:52:00.477Z,100776.16
2022-09-02T00:54:33.396Z,100794.53
2022-09-02T00:57:04.812Z,100796.97
2022-09-02T00:59:44.591Z,100785.63
2022-09-02T01:02:14.563Z,100792.44
2022-09-02T01:04:46.795Z,100797.06
2022-09-02T01:07:16.238Z,100801.94
2022-09-02T01:09:46.489Z,100798.75
2022-09-02T01:12:16.329Z,100801.91
2022-09-02T01:14:45.408Z,100809.41
2022-09-02T01:17:20.438Z,100804.81
2022-09-02T01:19:52.390Z,100814.28
2022-09-02T01:22:25.415Z,100814.72
2022-09-02T01:24:55.970Z,100807.91
2022-09-02T01:27:25.386Z,100813.50
2022-09-02T01:29:55.734Z,100815.41
2022-09-02T01:32:25.789Z,100816.81
2022-09-02T01:34:57.723Z,100816.81
2022-09-02T01:37:28.711Z,100811.03
2022-09-02T01:39:58.073Z,100816.59
2022-09-02T01:42:27.395Z,100818.72
2022-09-02T01:44:56.319Z,100824.59
2022-09-02T01:47:28.237Z,100814.31
2022-09-02T01:49:57.955Z,100825.75
2022-09-02T01:52:30.253Z,100842.00
2022-09-02T01:54:59.777Z,100825.69
2022-09-02T01:57:28.864Z,100737.47
2022-09-02T01:59:57.806Z,100831.94
2022-09-02T02:02:28.438Z,100830.78
2022-09-02T02:04:57.365Z,100829.88
2022-09-02T02:07:28.849Z,100842.28
2022-09-02T02:09:57.798Z,100848.09
2022-09-02T02:12:26.984Z,100826.06
2022-09-02T02:14:57.207Z,100853.78
2022-09-02T02:17:26.083Z,100853.78
2022-09-02T02:19:54.928Z,100850.44
2022-09-02T02:22:23.717Z,100853.94
2022-09-02T02:24:53.952Z,100854.97
2022-09-02T02:27:22.759Z,100852.28
2022-09-02T02:29:51.701Z,100858.50
2022-09-02T02:32:26.268Z,100853.59
2022-09-02T02:34:56.368Z,100859.56
2022-09-02T02:37:25.687Z,100855.69
2022-09-02T02:39:57.482Z,100862.97
2022-09-02T02:42:29.069Z,100862.41
2022-09-02T02:44:57.871Z,100857.34
2022-09-02T02:47:27.758Z,100854.53
2022-09-02T02:49:56.784Z,100856.25
2022-09-02T02:52:25.668Z,100852.56
2022-09-02T02:54:56.684Z,100855.00
2022-09-02T02:57:25.852Z,100865.91
2022-09-02T02:59:55.033Z,100837.69
2022-09-02T03:02:24.161Z,100859.34
2022-09-02T03:04:54.376Z,100799.84
2022-09-02T03:07:24.315Z,100855.91
2022-09-02T03:09:53.757Z,100868.31
2022-09-02T03:12:25.622Z,100873.16
2022-09-02T03:14:54.516Z,100875.53
2022-09-02T03:17:23.798Z,100864.00
2022-09-02T03:19:52.829Z,100856.78
2022-09-02T03:22:21.682Z,100881.63
2022-09-02T03:24:51.342Z,100873.94
2022-09-02T03:27:20.215Z,100876.19
2022-09-02T03:29:50.426Z,100857.50
2022-09-02T03:32:19.322Z,100883.09
2022-09-02T03:34:49.007Z,100889.19
2022-09-02T03:37:18.964Z,100902.97
2022-09-02T03:39:48.636Z,100899.13
2022-09-02T03:42:19.671Z,100904.69
2022-09-02T03:44:52.415Z,100913.25
2022-09-02T03:47:21.752Z,100907.06
2022-09-02T03:49:54.374Z,100924.34
2022-09-02T03:52:24.104Z,100924.59
2022-09-02T03:54:53.836Z,100930.16
2022-09-02T03:57:26.905Z,100922.88
2022-09-02T03:59:57.230Z,100919.09
2022-09-02T04:02:26.460Z,100925.78
2022-09-02T04:04:55.404Z,100926.53
2022-09-02T04:07:24.638Z,100933.13
2022-09-02T04:09:56.476Z,100924.56
2022-09-02T04:12:25.298Z,100931.56
2022-09-02T04:15:03.066Z,100936.72
2022-09-02T04:17:32.125Z,100937.72
2022-09-02T04:20:00.958Z,100939.97
2022-09-02T04:22:29.766Z,100939.22
2022-09-02T04:24:58.770Z,100940.25
2022-09-02T04:27:28.553Z,100959.31
2022-09-02T04:29:58.531Z,100937.94
2022-09-02T04:32:31.098Z,100953.00
2022-09-02T04:35:00.873Z,100940.66
2022-09-02T04:37:30.249Z,100955.31
2022-09-02T04:39:59.902Z,100957.53
2022-09-02T04:42:29.009Z,100964.63
2022-09-02T04:44:59.452Z,100975.09
2022-09-02T04:47:31.386Z,100948.56
2022-09-02T04:50:00.538Z,100964.91
2022-09-02T04:52:29.695Z,100973.31
2022-09-02T04:54:58.940Z,100967.38
2022-09-02T04:57:27.721Z,100956.66
2022-09-02T04:59:57.158Z,100942.34
2022-09-02T05:02:26.161Z,100943.03
2022-09-02T05:04:56.441Z,100903.72
2022-09-02T05:07:31.224Z,100976.56
2022-09-02T05:10:02.935Z,100976.47
2022-09-02T05:12:37.251Z,100982.72
2022-09-02T05:15:07.269Z,100976.50
2022-09-02T05:17:37.794Z,100969.22
2022-09-02T05:20:10.384Z,100977.47
2022-09-02T05:22:41.214Z,100977.72
2022-09-02T05:25:11.912Z,100977.00
2022-09-02T05:27:41.495Z,100987.34
2022-09-02T05:30:11.595Z,100980.50
2022-09-02T05:32:42.428Z,100991.47
2022-09-02T05:35:13.152Z,100973.31
2022-09-02T05:37:42.110Z,100992.59
2022-09-02T05:40:14.936Z,100992.69
2022-09-02T05:42:44.763Z,100983.91
2022-09-02T05:45:16.808Z,100991.81
2022-09-02T05:47:46.557Z,100994.91
2022-09-02T05:50:17.024Z,100928.28
2022-09-02T05:52:51.140Z,100997.97
2022-09-02T05:55:21.804Z,101006.88
2022-09-02T05:57:51.509Z,101003.66
2022-09-02T06:00:20.830Z,100998.75
2022-09-02T06:02:57.735Z,100991.88
2022-09-02T06:05:33.084Z,100999.44
2022-09-02T06:08:14.528Z,101009.09
2022-09-02T06:10:44.727Z,101001.81
2022-09-02T06:13:22.923Z,100998.88
2022-09-02T06:15:55.832Z,100990.41
2022-09-02T06:18:27.915Z,100999.84
2022-09-02T06:20:59.888Z,101004.78
2022-09-02T06:23:35.796Z,101017.13
2022-09-02T06:26:05.364Z,101027.97
2022-09-02T06:28:34.364Z,101024.06
2022-09-02T06:31:08.711Z,101030.28
2022-09-02T06:33:39.257Z,101022.69
2022-09-02T06:36:10.889Z,101027.28
2022-09-02T06:38:45.202Z,101000.34
2022-09-02T06:41:17.148Z,101018.50
2022-09-02T06:43:47.569Z,101013.97
2022-09-02T06:46:26.230Z,101018.28
2022-09-02T06:48:58.944Z,101018.28
2022-09-02T06:51:32.729Z,101023.00
2022-09-02T06:54:05.471Z,101022.75
2022-09-02T06:56:38.323Z,101015.78
2022-09-02T06:59:08.986Z,100989.25
2022-09-02T07:01:45.358Z,101028.75
2022-09-02T07:04:35.924Z,101033.94
2022-09-02T07:07:09.055Z,101039.28
2022-09-02T07:09:44.701Z,101035.63
2022-09-02T07:12:19.300Z,101025.09
2022-09-02T07:14:54.290Z,101045.50
2022-09-02T07:17:28.728Z,101038.72
2022-09-02T07:20:03.829Z,101037.44
2022-09-02T07:22:40.155Z,100977.50
2022-09-02T07:25:11.741Z,101045.94
2022-09-02T07:27:40.637Z,101051.53
2022-09-02T07:30:11.181Z,101041.19
2022-09-02T07:32:41.830Z,101054.03
2022-09-02T07:35:11.711Z,101043.31
2022-09-02T07:37:42.070Z,101049.88
2022-09-02T07:40:14.510Z,101057.03
2022-09-02T07:42:44.877Z,101042.97
2022-09-02T07:45:14.773Z,101047.00
2022-09-02T07:47:45.315Z,101052.09
2022-09-02T07:50:20.360Z,101053.41
2022-09-02T07:52:57.851Z,101048.31
2022-09-02T07:55:31.113Z,101043.59
2022-09-02T07:58:00.478Z,101037.03
2022-09-02T08:00:29.335Z,101037.91
2022-09-02T08:03:05.623Z,101040.44
2022-09-02T08:05:41.410Z,101055.06
2022-09-02T08:08:11.569Z,101046.34
2022-09-02T08:10:40.785Z,101044.63
2022-09-02T08:13:11.179Z,101033.25
2022-09-02T08:15:40.566Z,101021.53
2022-09-02T08:18:17.511Z,101033.47
2022-09-02T08:20:54.176Z,101036.78
2022-09-02T08:23:40.215Z,101037.88
2022-09-02T08:26:09.310Z,101038.38
2022-09-02T08:28:39.501Z,101035.19
2022-09-02T08:31:08.751Z,101027.44
2022-09-02T08:33:38.062Z,101029.25
2022-09-02T08:36:08.928Z,101011.06
2022-09-02T08:38:39.504Z,101026.81
2022-09-02T08:41:15.079Z,101022.91
2022-09-02T08:43:45.904Z,101022.59
2022-09-02T08:46:18.284Z,101018.06
2022-09-02T08:48:53.054Z,101019.13
2022-09-02T08:51:33.752Z,101035.19
2022-09-02T08:54:11.083Z,101031.41
2022-09-02T08:56:41.728Z,101016.44
2022-09-02T08:59:13.243Z,101031.84
2022-09-02T09:01:49.843Z,101025.06
2022-09-02T09:04:28.412Z,101022.63
2022-09-02T09:07:09.915Z,101022.72
2022-09-02T09:09:53.406Z,101027.44
2022-09-02T09:12:29.382Z,100973.41
2022-09-02T09:15:06.804Z,101018.13
2022-09-02T09:17:44.270Z,100999.69
2022-09-02T09:20:18.164Z,101014.06
2022-09-02T09:22:49.695Z,101013.34
2022-09-02T09:25:20.394Z,101011.16
2022-09-02T09:27:51.198Z,101012.13
2022-09-02T09:30:20.376Z,100895.34
2022-09-02T09:32:54.820Z,101020.31
2022-09-02T09:35:24.902Z,101019.69
2022-09-02T09:37:56.098Z,100958.75
2022-09-02T09:40:31.066Z,101021.69
2022-09-02T09:43:15.464Z,101028.13
2022-09-02T09:45:47.281Z,100947.19
2022-09-02T09:48:27.719Z,101018.03
2022-09-02T09:51:16.124Z,101012.91
2022-09-02T09:53:45.803Z,101012.69
2022-09-02T09:56:37.444Z,100998.81
2022-09-02T09:59:30.528Z,101013.13
2022-09-02T10:01:59.999Z,101000.41
2022-09-02T10:04:42.845Z,101009.47
2022-09-02T10:07:13.550Z,101006.06
2022-09-02T10:09:42.710Z,101004.50
2022-09-02T10:12:14.932Z,101002.19
2022-09-02T10:14:46.218Z,101003.44
2022-09-02T10:17:28.141Z,101009.44
2022-09-02T10:20:05.148Z,101006.91
2022-09-02T10:22:59.003Z,101004.38
2022-09-02T10:25:41.130Z,100990.50
2022-09-02T10:28:21.066Z,101009.69
2022-09-02T10:30:56.897Z,100997.47
2022-09-02T10:33:34.496Z,100991.81
2022-09-02T10:36:18.169Z,101002.63
2022-09-02T10:38:50.895Z,100971.13
2022-09-02T10:41:33.786Z,101004.66
2022-09-02T10:44:31.548Z,101002.09
2022-09-02T10:47:04.333Z,101008.94
2022-09-02T10:49:51.580Z,101004.16
2022-09-02T10:52:46.689Z,100971.28
2022-09-02T10:55:22.801Z,100992.44
2022-09-02T10:57:59.625Z,101002.59
2022-09-02T11:00:33.523Z,101000.19
2022-09-02T11:03:12.083Z,100982.50
2022-09-02T11:05:48.244Z,101000.69
2022-09-02T11:08:28.414Z,101003.16
2022-09-02T11:11:07.142Z,101005.72
2022-09-02T11:13:43.333Z,101003.56
2022-09-02T11:16:20.140Z,101014.00
2022-09-02T11:18:59.001Z,101005.88
2022-09-02T11:21:46.677Z,101004.25
2022-09-02T11:24:20.346Z,100935.34
2022-09-02T11:26:57.453Z,101009.38
2022-09-02T11:29:38.116Z,101000.91
2022-09-02T11:32:19.050Z,101010.22
2022-09-02T11:34:51.018Z,100998.63
2022-09-02T11:37:31.650Z,100995.97
2022-09-02T11:40:30.539Z,100990.75
2022-09-02T11:43:09.968Z,100999.78
2022-09-02T11:46:19.246Z,100999.03
2022-09-02T11:49:16.654Z,100998.44
2022-09-02T11:55:03.538Z,100990.16
2022-09-02T11:57:33.991Z,101001.38
2022-09-02T12:00:10.846Z,101002.69
2022-09-02T12:02:45.852Z,101002.22
2022-09-02T12:05:52.044Z,101007.56
2022-09-02T12:09:10.305Z,101000.44
2022-09-02T12:11:47.337Z,100992.53
2022-09-02T12:15:06.315Z,100990.25
2022-09-02T12:17:42.851Z,100980.91
2022-09-02T12:20:33.693Z,100985.72
2022-09-02T12:23:04.621Z,100985.50
2022-09-02T12:25:44.520Z,100991.88
2022-09-02T12:28:25.834Z,100984.00
2022-09-02T12:31:24.036Z,100987.56
2022-09-02T12:33:53.780Z,100975.38
2022-09-02T12:36:48.425Z,100983.56
2022-09-02T12:39:58.582Z,100983.81
2022-09-02T12:42:34.201Z,100980.63
2022-09-02T12:45:14.445Z,100980.53
2022-09-02T12:47:55.019Z,100983.97
2022-09-02T12:50:30.046Z,100976.81
2022-09-02T12:53:20.903Z,100979.59
2022-09-02T12:55:57.317Z,100972.53
2022-09-02T12:58:27.082Z,100981.34
2022-09-02T13:01:07.383Z,100977.78
2022-09-02T13:03:58.437Z,100980.22
2022-09-02T13:06:44.600Z,100971.16
2022-09-02T13:09:49.988Z,100970.25
2022-09-02T13:13:08.528Z,100967.41
2022-09-02T13:16:04.997Z,100858.47
2022-09-02T13:19:13.798Z,100969.59
2022-09-02T13:21:59.078Z,100974.16
2022-09-02T13:24:53.085Z,100967.88
2022-09-02T13:28:12.384Z,100970.66
2022-09-02T13:31:02.463Z,100955.38
2022-09-02T13:33:31.801Z,100954.81
2022-09-02T13:36:01.691Z,100959.81
2022-09-02T13:38:33.064Z,100896.81
2022-09-02T13:41:02.518Z,100952.75
2022-09-02T13:43:32.973Z,100959.09
2022-09-02T13:46:03.377Z,100954.94
2022-09-02T13:48:34.070Z,100946.47
2022-09-02T13:51:13.313Z,100950.00
2022-09-02T13:54:05.619Z,100938.19
2022-09-02T13:56:36.029Z,100946.41
2022-09-02T13:59:06.652Z,100941.47
2022-09-02T14:01:40.158Z,100943.38
2022-09-02T14:04:14.476Z,100942.66
2022-09-02T14:06:48.678Z,100937.94
2022-09-02T14:09:22.266Z,100942.59
2022-09-02T14:11:53.037Z,100944.06
2022-09-02T14:14:25.546Z,100940.19
2022-09-02T14:17:14.512Z,100940.41
2022-09-02T14:19:43.395Z,100941.09
2022-09-02T14:22:23.551Z,100941.56
2022-09-02T14:24:52.448Z,100936.28
2022-09-02T14:27:23.480Z,100925.56
2022-09-02T14:29:58.542Z,100929.47
2022-09-02T14:32:29.274Z,100933.75
2022-09-02T14:35:12.990Z,100915.28
2022-09-02T14:38:00.203Z,100933.34
2022-09-02T14:40:38.009Z,100928.53
2022-09-02T14:43:14.435Z,100932.78
2022-09-02T14:45:48.904Z,100930.63
2022-09-02T14:48:22.759Z,100937.44
2022-09-02T14:51:02.485Z,100933.94
2022-09-02T14:53:33.095Z,100917.63
2022-09-02T14:56:02.343Z,100924.78
2022-09-02T14:58:31.504Z,100932.06
2022-09-02T15:01:03.353Z,100922.22
2022-09-02T15:03:37.817Z,100916.03
2022-09-02T15:06:07.854Z,100923.38
2022-09-02T15:08:39.372Z,100923.41
2022-09-02T15:11:08.660Z,100929.50
2022-09-02T15:13:37.965Z,100917.91
2022-09-02T15:16:08.859Z,100853.25
2022-09-02T15:18:38.215Z,100926.53
2022-09-02T15:21:07.680Z,100927.63
2022-09-02T15:23:41.205Z,100932.31
2022-09-02T15:26:10.447Z,100931.72
2022-09-02T15:28:39.835Z,100923.63
2022-09-02T15:31:10.479Z,100927.47
2022-09-02T15:33:41.035Z,100927.69
2022-09-02T15:36:12.336Z,100922.78
2022-09-02T15:38:42.207Z,100925.38
2022-09-02T15:41:13.119Z,100932.22
2022-09-02T15:43:43.519Z,100937.66
2022-09-02T15:46:23.009Z,100765.41
2022-09-02T15:48:52.964Z,100940.91
2022-09-02T15:51:30.753Z,100941.09
2022-09-02T15:54:01.529Z,100933.13
2022-09-02T15:56:32.317Z,100918.03
2022-09-02T15:59:04.506Z,100936.00
2022-09-02T16:01:36.969Z,100939.69
2022-09-02T16:04:07.720Z,100942.38
2022-09-02T16:06:39.606Z,100946.78
2022-09-02T16:09:09.505Z,100949.13
2022-09-02T16:11:38.976Z,100947.28
2022-09-02T16:14:08.814Z,100946.69
2022-09-02T16:16:39.382Z,100867.59
2022-09-02T16:19:09.117Z,100952.69
2022-09-02T16:21:39.244Z,100944.81
2022-09-02T16:24:09.213Z,100950.81
2022-09-02T16:26:39.402Z,100951.00
2022-09-02T16:29:09.811Z,100949.06
2022-09-02T16:31:41.390Z,100952.13
2022-09-02T16:34:12.123Z,100950.41
2022-09-02T16:36:43.317Z,100965.84
2022-09-02T16:39:14.366Z,100948.88
2022-09-02T16:41:46.017Z,100958.78
2022-09-02T16:44:20.727Z,100954.38
2022-09-02T16:46:52.807Z,100957.78
2022-09-02T16:49:22.923Z,100956.28
2022-09-02T16:51:57.841Z,100956.94
2022-09-02T16:54:31.228Z,100961.56
2022-09-02T16:57:01.178Z,100965.03
2022-09-02T16:59:31.722Z,100967.41
2022-09-02T17:02:02.341Z,100975.59
2022-09-02T17:04:31.502Z,100954.69
2022-09-02T17:07:00.615Z,100980.84
2022-09-02T17:09:29.563Z,100983.84
2022-09-02T17:11:58.810Z,100983.16
2022-09-02T17:14:27.894Z,100985.44
2022-09-02T17:16:56.984Z,100983.06
2022-09-02T17:19:32.094Z,100980.19
2022-09-02T17:22:01.614Z,100974.78
2022-09-02T17:24:31.834Z,100986.75
2022-09-02T17:27:02.181Z,100974.28
2022-09-02T17:32:21.653Z,100983.66
2022-09-02T17:34:52.197Z,101005.94
2022-09-02T17:37:22.791Z,100984.72
2022-09-02T17:39:51.897Z,100998.19
2022-09-02T17:42:21.390Z,101013.06
2022-09-02T17:44:51.515Z,101015.63
2022-09-02T17:47:22.910Z,101012.91
2022-09-02T17:49:53.918Z,101015.94
2022-09-02T17:52:24.643Z,101014.41
2022-09-02T17:54:54.498Z,101013.97
2022-09-02T17:57:42.358Z,101015.13
2022-09-02T18:00:13.437Z,101021.41
2022-09-02T18:03:22.018Z,101008.91
2022-09-02T18:06:17.070Z,101000.44
2022-09-02T18:08:53.014Z,101015.41
2022-09-02T18:11:23.208Z,101016.56
2022-09-02T18:14:01.106Z,101015.13
2022-09-02T18:16:33.439Z,100989.38
2022-09-02T18:19:19.434Z,101012.88
2022-09-02T18:22:06.475Z,101021.13
2022-09-02T18:24:57.182Z,101018.03
2022-09-02T18:27:38.846Z,101011.09
2022-09-02T18:30:10.052Z,101023.13
2022-09-02T18:33:05.237Z,101013.50
2022-09-02T18:35:47.657Z,101007.56
2022-09-02T18:38:28.644Z,101019.47
2022-09-02T18:41:14.440Z,101022.00
2022-09-02T18:43:57.399Z,101032.22
2022-09-02T18:46:29.578Z,101028.84
2022-09-02T18:49:02.517Z,101029.66
2022-09-02T18:51:36.230Z,101024.25
2022-09-02T18:54:15.698Z,101022.00
2022-09-02T18:56:50.493Z,101026.38
2022-09-02T18:59:28.561Z,101038.75
2022-09-02T19:02:02.302Z,101010.31
2022-09-02T19:04:34.450Z,101037.50
2022-09-02T19:07:21.087Z,101028.38
2022-09-02T19:09:52.009Z,101026.94
2022-09-02T19:12:21.402Z,101024.44
2022-09-02T19:14:51.107Z,101033.25
2022-09-02T19:17:20.245Z,101012.53
2022-09-02T19:19:49.275Z,101029.25
2022-09-02T19:22:24.536Z,101037.31
2022-09-02T19:25:00.897Z,101033.19
2022-09-02T19:27:33.650Z,101038.88
2022-09-02T19:30:07.792Z,101023.81
2022-09-02T19:32:38.811Z,101036.44
2022-09-02T19:35:16.343Z,101051.34
2022-09-02T19:37:47.124Z,101048.03
2022-09-02T19:40:20.562Z,101046.69
2022-09-02T19:42:52.065Z,101044.69
2022-09-02T19:45:21.826Z,101013.09
2022-09-02T19:48:08.279Z,101037.03
2022-09-02T19:50:38.602Z,101047.28
2022-09-02T19:53:07.901Z,101040.44
2022-09-02T19:55:38.523Z,101029.38
2022-09-02T19:58:07.478Z,101012.69
2022-09-02T20:00:43.459Z,101034.31
2022-09-02T20:03:13.138Z,101035.53
2022-09-02T20:05:42.707Z,101049.97
2022-09-02T20:08:12.839Z,101048.28
2022-09-02T20:10:43.175Z,101046.84
2022-09-02T20:13:16.692Z,101058.03
2022-09-02T20:15:45.822Z,101044.56
2022-09-02T20:18:16.122Z,101053.22
2022-09-02T20:20:46.694Z,101046.91
2022-09-02T20:23:17.791Z,101048.81
2022-09-02T20:26:10.298Z,101041.97
2022-09-02T20:28:47.605Z,101053.72
2022-09-02T20:31:26.833Z,101038.59
2022-09-02T20:34:05.944Z,101032.69
2022-09-02T20:36:39.691Z,101016.69
2022-09-02T20:39:22.417Z,101050.97
2022-09-02T20:42:04.150Z,101050.81
2022-09-02T20:44:44.447Z,101054.31
2022-09-02T20:47:35.350Z,101046.00
2022-09-02T20:50:16.923Z,101056.66
2022-09-02T20:53:00.952Z,101055.03
2022-09-02T20:55:36.696Z,101040.63
2022-09-02T20:58:19.575Z,101054.59
2022-09-02T21:01:01.349Z,101050.84
2022-09-02T21:03:41.219Z,101050.91
2022-09-02T21:06:12.404Z,101020.38
2022-09-02T21:08:48.919Z,101059.91
2022-09-02T21:11:19.597Z,101067.03
2022-09-02T21:13:55.749Z,101067.16
2022-09-02T21:16:32.195Z,101069.25
2022-09-02T21:19:08.039Z,101070.16
2022-09-02T21:21:42.346Z,101072.41
2022-09-02T21:24:15.002Z,101063.63
2022-09-02T21:26:49.352Z,101063.16
2022-09-02T21:29:27.778Z,101081.94
2022-09-02T21:32:00.095Z,101081.38
2022-09-02T21:34:34.815Z,101077.84
2022-09-02T21:37:05.469Z,101075.41
2022-09-02T21:39:39.543Z,101076.78
2022-09-02T21:42:23.429Z,101069.09
2022-09-02T21:45:06.285Z,101086.78
2022-09-02T21:47:39.728Z,101091.91
2022-09-02T21:50:11.194Z,101026.94
2022-09-02T21:52:56.979Z,101096.44
2022-09-02T21:55:40.440Z,101085.47
2022-09-02T21:58:28.992Z,101084.03
2022-09-02T22:01:05.567Z,101080.09
2022-09-02T22:03:42.342Z,101076.38
2022-09-02T22:06:19.637Z,101089.69
2022-09-02T22:08:58.643Z,101089.47
2022-09-02T22:11:35.899Z,101068.41
2022-09-02T22:14:14.520Z,101076.28
2022-09-02T22:16:53.782Z,101077.72
2022-09-02T22:19:24.064Z,101089.22
2022-09-02T22:21:58.106Z,101081.91
2022-09-02T22:24:31.234Z,101080.78
2022-09-02T22:27:06.426Z,101074.59
2022-09-02T22:29:42.673Z,101081.34
2022-09-02T22:32:15.627Z,101077.53
2022-09-02T22:34:50.736Z,101082.63
2022-09-02T22:37:26.071Z,101067.06
2022-09-02T22:39:57.318Z,101080.06
2022-09-02T22:42:33.989Z,101082.16
2022-09-02T22:45:26.232Z,101071.16
2022-09-02T22:48:19.872Z,101077.44
2022-09-02T22:51:15.034Z,101075.50
2022-09-02T22:53:48.097Z,101067.72
2022-09-02T22:56:26.552Z,101063.56
2022-09-02T22:59:08.580Z,101068.91
2022-09-02T23:01:53.584Z,101049.22
2022-09-02T23:04:35.654Z,101071.25
2022-09-02T23:07:05.505Z,101081.72
2022-09-02T23:09:36.435Z,101076.75
2022-09-02T23:12:17.893Z,101069.28
2022-09-02T23:15:02.586Z,101078.22
2022-09-02T23:17:44.636Z,101077.50
2022-09-02T23:20:25.467Z,101088.34
2022-09-02T23:23:07.392Z,101075.84
2022-09-02T23:25:54.473Z,101065.59
2022-09-02T23:28:32.480Z,101090.44
2022-09-02T23:31:08.112Z,101093.25
2022-09-02T23:33:51.446Z,101061.69
2022-09-02T23:36:36.127Z,101098.84
2022-09-02T23:39:19.085Z,101103.59
2022-09-02T23:41:48.806Z,101099.66
2022-09-02T23:44:23.071Z,101089.97
2022-09-02T23:47:05.566Z,101080.97
2022-09-02T23:49:40.265Z,101097.84
2022-09-02T23:52:27.492Z,101103.22
2022-09-02T23:55:13.310Z,101102.34
2022-09-02T23:58:03.362Z,101105.75
